Terminal Aerodrome Forecast
Issued by NWS St Louis, MO

Home | Current Version | Previous Version | Text Only | Print | Product List | Glossary On
Versions: 1 2 3 4 5 6 7 8 9 10 11 12 13 14 15 16 17 18 19 20 21 22 23 24 25 26 27 28 29
000
FTUS43 KLSX 020900 AAC
TAFCOU
TAF AMD
KCOU 020926Z 0209/0306 VRB05KT P6SM SCT004 BKN035
      TEMPO 0209/0211 5SM -SHRA BKN004
     FM021500 25005KT P6SM BKN015
     FM021800 VRB04KT P6SM SCT030 SCT120=

USA.gov is the U.S. government's official web portal to all federal, state and local government web resources and services.